Milwaukee, Wisconsin
Traffic Map
Current Weather Conditions
Milwaukee, Wisconsin
Clear
Clear
66°
Feels Like: 66°
Wind Chill: 66° Ceiling: Unl
Heat Index: 66° Visibility: 10mi
Dew Point: 48° Wind: 8mph
Humidity: 52% Direction: 240° (WSW)
Pressure: 29.73in Gusts: 0mph
Raw Report DataKMKE 290352Z 24007KT 10SM CLR 19/09 A2973 RMK AO2 SLP066 T01890089
Traffic Incident Summary
Active as of:
Severity:
Category:
InformationThere was an issue retrieving the traffic information for this location. Please try a different location or try again shortly.
Advertisements
Track Severe Weather on mobile